< < Back
Terminal Aerodrome Forecast


Current Version              Previous Versions:   1  2  3  4  5  6  7  8  9  

Terminal Aerodrome Forecast

256
FTUS42 KFFC 260800 AAA
TAFATL
TAF AMD
KATL 260840Z 2609/2712 30004KT P6SM FEW045
     FM261600 27009KT P6SM SCT045
     FM270200 24004KT P6SM FEW050=

Latest METAR

965
SAUS70 KWBC 260900 RRB
MTRATL
METAR KATL 260852Z 00000KT 10SM FEW045 22/19 A3002 RMK AO2 SLP155
T02170189 55007 $


USA.gov is the U.S. government's official web portal to all federal, state and local government web resources and services.